Time;durP1;ratioP1;P1;durP2;ratioP2;P2;SDS_P1;SDS_P2;PMS_P1;PMS_P2;Temp;Humidity;BMP_temperature;BMP_pressure;BME280_temperature;BME280_humidity;BME280_pressure;Samples;Min_cycle;Max_cycle;Signal;HPM_P1;HPM_P2
2023/06/27 00:00:56;;;;;;;;;;;;;;;;;;4256212;27;19926;-55
2023/06/27 00:03:18;;;;;;;;;;;;;;;;;;4256584;27;19934;-55
2023/06/27 00:05:38;;;;;;;;;;;;;;;;;;4257591;27;20203;-55
2023/06/27 00:07:58;;;;;;;;;;;;;;;;;;4267872;27;19964;-55
2023/06/27 00:10:19;;;;;;;;;;;;;;;;;;4254297;27;19927;-55
2023/06/27 00:12:39;;;;;;;;;;;;;;;;;;4255706;27;19926;-55
2023/06/27 00:14:59;;;;;;;;;;;;;;;;;;4264437;27;20011;-56
2023/06/27 00:17:23;;;;;;;;;;;;;;;;;;4245366;27;20115;-55
2023/06/27 00:19:46;;;;;;;;;;;;;;;;;;4263706;27;19926;-55
2023/06/27 00:22:09;;;;;;;;;;;;;;;;;;4252940;27;19926;-55
2023/06/27 00:24:29;;;;;;;;;;;;;;;;;;4256270;27;19951;-55
2023/06/27 00:26:49;;;;;;;;;;;;;;;;;;4266841;27;19949;-55
2023/06/27 00:29:09;;;;;;;;;;;;;;;;;;4262661;27;19926;-57
2023/06/27 00:31:30;;;;;;;;;;;;;;;;;;4254197;27;19957;-58
2023/06/27 00:33:50;;;;;;;;;;;;;;;;;;4243748;28;19998;-57
2023/06/27 00:36:10;;;;;;;;;;;;;;;;;;4254534;27;19938;-57
2023/06/27 00:38:31;;;;;;;;;;;;;;;;;;4264421;27;19973;-58
2023/06/27 00:40:51;;;;;;;;;;;;;;;;;;4258847;27;19980;-57
2023/06/27 00:43:12;;;;;;;;;;;;;;;;;;4252752;27;19934;-57
2023/06/27 00:45:32;;;;;;;;;;;;;;;;;;4259299;27;19927;-58
2023/06/27 00:47:56;;;;;;;;;;;;;;;;;;4259125;27;19965;-57
2023/06/27 00:50:16;;;;;;;;;;;;;;;;;;4264505;27;19926;-58
2023/06/27 00:52:36;;;;;;;;;;;;;;;;;;4258381;27;19982;-57
2023/06/27 00:54:57;;;;;;;;;;;;;;;;;;4251446;27;19926;-57
2023/06/27 00:57:17;;;;;;;;;;;;;;;;;;4262209;27;19926;-58
2023/06/27 00:59:37;;;;;;;;;;;;;;;;;;4265798;27;19930;-57
2023/06/27 01:01:57;;;;;;;;;;;;;;;;;;4263178;22;20030;-59
2023/06/27 01:04:17;;;;;;;;;;;;;;;;;;4215880;28;19927;-57
2023/06/27 01:06:38;;;;;;;;;;;;;;;;;;4231304;28;19938;-57
2023/06/27 01:08:58;;;;;;;;;;;;;;;;;;4224429;28;20229;-57
2023/06/27 01:11:18;;;;;;;;;;;;;;;;;;4228111;28;19943;-58
2023/06/27 01:13:38;;;;;;;;;;;;;;;;;;4211946;28;19958;-57
2023/06/27 01:15:59;;;;;;;;;;;;;;;;;;4218420;28;20217;-57
2023/06/27 01:18:20;;;;;;;;;;;;;;;;;;4217126;28;20043;-57
2023/06/27 01:20:43;;;;;;;;;;;;;;;;;;4230897;28;19926;-56
2023/06/27 01:23:05;;;;;;;;;;;;;;;;;;4210918;28;19927;-57
2023/06/27 01:25:27;;;;;;;;;;;;;;;;;;4226263;28;19931;-57
2023/06/27 01:27:47;;;;;;;;;;;;;;;;;;4229891;28;19927;-56
2023/06/27 01:30:08;;;;;;;;;;;;;;;;;;4235553;28;19926;-57
2023/06/27 01:32:29;;;;;;;;;;;;;;;;;;4211939;28;19927;-57
2023/06/27 01:34:49;;;;;;;;;;;;;;;;;;4215314;28;20264;-57
2023/06/27 01:37:09;;;;;;;;;;;;;;;;;;4219481;28;19943;-57
2023/06/27 01:39:29;;;;;;;;;;;;;;;;;;4217537;28;19935;-57
2023/06/27 01:41:50;;;;;;;;;;;;;;;;;;4208996;28;19941;-57
2023/06/27 01:44:10;;;;;;;;;;;;;;;;;;4215505;28;19934;-57
2023/06/27 01:46:30;;;;;;;;;;;;;;;;;;4212215;28;19967;-57
2023/06/27 01:48:50;;;;;;;;;;;;;;;;;;4210181;28;20019;-57
2023/06/27 01:51:10;;;;;;;;;;;;;;;;;;4211041;28;20257;-57
2023/06/27 01:53:31;;;;;;;;;;;;;;;;;;4209999;28;19935;-57
2023/06/27 01:55:51;;;;;;;;;;;;;;;;;;4212062;28;19927;-56
2023/06/27 01:58:11;;;;;;;;;;;;;;;;;;4207471;28;20285;-57
2023/06/27 02:00:31;;;;;;;;;;;;;;;;;;4210918;28;19926;-57
2023/06/27 02:02:52;;;;;;;;;;;;;;;;;;4213850;28;19950;-57
2023/06/27 02:05:12;;;;;;;;;;;;;;;;;;4208505;28;19988;-56
2023/06/27 02:07:32;;;;;;;;;;;;;;;;;;4207438;28;20268;-57
2023/06/27 02:09:52;;;;;;;;;;;;;;;;;;4215875;28;19926;-57
2023/06/27 02:12:12;;;;;;;;;;;;;;;;;;4217007;28;19927;-57
2023/06/27 02:14:32;;;;;;;;;;;;;;;;;;4212601;28;20154;-57
2023/06/27 02:16:52;;;;;;;;;;;;;;;;;;4208378;28;20114;-57
2023/06/27 02:19:12;;;;;;;;;;;;;;;;;;4212017;28;19927;-57
2023/06/27 02:21:32;;;;;;;;;;;;;;;;;;4209314;28;20229;-57
2023/06/27 02:23:53;;;;;;;;;;;;;;;;;;4212195;28;20130;-57
2023/06/27 02:26:13;;;;;;;;;;;;;;;;;;4211257;28;19927;-57
2023/06/27 02:28:33;;;;;;;;;;;;;;;;;;4215362;28;20226;-57
2023/06/27 02:30:55;;;;;;;;;;;;;;;;;;4209321;28;19935;-57
2023/06/27 02:33:15;;;;;;;;;;;;;;;;;;4211200;28;19971;-57
2023/06/27 02:35:36;;;;;;;;;;;;;;;;;;4209994;28;20198;-57
2023/06/27 02:37:56;;;;;;;;;;;;;;;;;;4215156;28;20260;-58
2023/06/27 02:40:16;;;;;;;;;;;;;;;;;;4210456;28;19928;-57
2023/06/27 02:42:37;;;;;;;;;;;;;;;;;;4207004;28;19927;-57
2023/06/27 02:44:57;;;;;;;;;;;;;;;;;;4211208;28;19966;-57
2023/06/27 02:47:17;;;;;;;;;;;;;;;;;;4212898;28;19927;-57
2023/06/27 02:49:37;;;;;;;;;;;;;;;;;;4208914;28;19927;-57
2023/06/27 02:51:58;;;;;;;;;;;;;;;;;;4210030;28;19959;-57
2023/06/27 02:54:18;;;;;;;;;;;;;;;;;;4213195;28;19935;-57
2023/06/27 02:56:38;;;;;;;;;;;;;;;;;;4209966;28;19983;-57
2023/06/27 02:58:58;;;;;;;;;;;;;;;;;;4208909;28;19927;-57
2023/06/27 03:01:19;;;;;;;;;;;;;;;;;;4207508;28;20042;-57
2023/06/27 03:03:39;;;;;;;;;;;;;;;;;;4211716;28;20149;-57
2023/06/27 03:06:03;;;;;;;;;;;;;;;;;;4211376;28;20276;-56
2023/06/27 03:08:23;;;;;;;;;;;;;;;;;;4206262;28;19962;-57
2023/06/27 03:10:44;;;;;;;;;;;;;;;;;;4209820;28;19927;-57
2023/06/27 03:13:04;;;;;;;;;;;;;;;;;;4215553;28;19927;-57
2023/06/27 03:15:25;;;;;;;;;;;;;;;;;;4217636;28;19992;-57
2023/06/27 03:17:45;;;;;;;;;;;;;;;;;;4207162;28;19927;-57
2023/06/27 03:20:05;;;;;;;;;;;;;;;;;;4210461;28;19927;-56
2023/06/27 03:22:25;;;;;;;;;;;;;;;;;;4211026;28;19963;-57
2023/06/27 03:24:47;;;;;;;;;;;;;;;;;;4210834;28;19927;-57
2023/06/27 03:27:08;;;;;;;;;;;;;;;;;;4210913;28;19961;-56
2023/06/27 03:29:28;;;;;;;;;;;;;;;;;;4216097;28;19958;-56
2023/06/27 03:31:48;;;;;;;;;;;;;;;;;;4213248;28;19927;-56
2023/06/27 03:34:09;;;;;;;;;;;;;;;;;;4210210;28;19927;-56
2023/06/27 03:36:33;;;;;;;;;;;;;;;;;;4210181;28;19927;-56
2023/06/27 03:38:53;;;;;;;;;;;;;;;;;;4211135;28;19928;-56
2023/06/27 03:41:13;;;;;;;;;;;;;;;;;;4216230;28;20329;-57
2023/06/27 03:43:33;;;;;;;;;;;;;;;;;;4206531;28;19928;-57
2023/06/27 03:45:53;;;;;;;;;;;;;;;;;;4207102;28;19992;-57
2023/06/27 03:48:14;;;;;;;;;;;;;;;;;;4215054;28;19927;-57
2023/06/27 03:50:36;;;;;;;;;;;;;;;;;;4213712;28;19927;-56
2023/06/27 03:52:56;;;;;;;;;;;;;;;;;;4211280;28;19977;-56
2023/06/27 03:55:17;;;;;;;;;;;;;;;;;;4220326;28;19993;-56
2023/06/27 03:57:37;;;;;;;;;;;;;;;;;;4217178;28;19974;-57
2023/06/27 03:59:57;;;;;;;;;;;;;;;;;;4212879;28;19935;-57
2023/06/27 04:02:18;;;;;;;;;;;;;;;;;;4222293;28;19934;-56
2023/06/27 04:04:38;;;;;;;;;;;;;;;;;;4212570;28;19927;-57
2023/06/27 04:06:59;;;;;;;;;;;;;;;;;;4215079;28;19928;-56
2023/06/27 04:09:19;;;;;;;;;;;;;;;;;;4210499;28;19974;-56
2023/06/27 04:11:40;;;;;;;;;;;;;;;;;;4208679;28;20230;-56
2023/06/27 04:14:00;;;;;;;;;;;;;;;;;;4214636;28;19957;-56
2023/06/27 04:16:20;;;;;;;;;;;;;;;;;;4219908;28;19928;-56
2023/06/27 04:18:41;;;;;;;;;;;;;;;;;;4212094;28;19961;-57
2023/06/27 04:21:01;;;;;;;;;;;;;;;;;;4209890;28;20123;-59
2023/06/27 04:23:22;;;;;;;;;;;;;;;;;;4214429;28;19961;-59
2023/06/27 04:25:43;;;;;;;;;;;;;;;;;;4213718;28;20115;-60
2023/06/27 04:28:04;;;;;;;;;;;;;;;;;;4213641;28;19928;-59
2023/06/27 04:30:23;;;;;;;;;;;;;;;;;;4218434;28;19978;-59
2023/06/27 04:32:44;;;;;;;;;;;;;;;;;;4216850;28;19927;-56
2023/06/27 04:35:04;;;;;;;;;;;;;;;;;;4211593;28;19935;-56
2023/06/27 04:37:25;;;;;;;;;;;;;;;;;;4208638;28;19966;-57
2023/06/27 04:39:45;;;;;;;;;;;;;;;;;;4215084;28;19927;-57
2023/06/27 04:42:05;;;;;;;;;;;;;;;;;;4213567;28;19927;-57
2023/06/27 04:44:26;;;;;;;;;;;;;;;;;;4215904;28;19927;-57
2023/06/27 04:46:46;;;;;;;;;;;;;;;;;;4207948;28;19927;-56
2023/06/27 04:49:06;;;;;;;;;;;;;;;;;;4213897;28;19928;-57
2023/06/27 04:51:27;;;;;;;;;;;;;;;;;;4213731;28;19989;-57
2023/06/27 04:53:47;;;;;;;;;;;;;;;;;;4208976;28;19982;-57
2023/06/27 04:56:07;;;;;;;;;;;;;;;;;;4208815;28;19992;-57
2023/06/27 04:58:28;;;;;;;;;;;;;;;;;;4219006;28;19926;-57
2023/06/27 05:00:48;;;;;;;;;;;;;;;;;;4212889;28;19975;-57
2023/06/27 05:03:08;;;;;;;;;;;;;;;;;;4211445;28;19928;-56
2023/06/27 05:05:33;;;;;;;;;;;;;;;;;;4210746;28;19986;-56
2023/06/27 05:07:53;;;;;;;;;;;;;;;;;;4213224;28;19926;-56
2023/06/27 05:10:14;;;;;;;;;;;;;;;;;;4212697;28;19977;-56
2023/06/27 05:12:34;;;;;;;;;;;;;;;;;;4207319;28;20146;-56
2023/06/27 05:14:54;;;;;;;;;;;;;;;;;;4210587;28;19927;-57
2023/06/27 05:17:14;;;;;;;;;;;;;;;;;;4214965;28;19927;-57
2023/06/27 05:19:35;;;;;;;;;;;;;;;;;;4219308;28;19984;-57
2023/06/27 05:21:55;;;;;;;;;;;;;;;;;;4207966;28;19927;-56
2023/06/27 05:24:15;;;;;;;;;;;;;;;;;;4211470;28;20225;-57
2023/06/27 05:26:36;;;;;;;;;;;;;;;;;;4215686;28;20219;-57
2023/06/27 05:28:57;;;;;;;;;;;;;;;;;;4209261;28;20274;-56
2023/06/27 05:31:18;;;;;;;;;;;;;;;;;;4213391;28;20021;-57
2023/06/27 05:33:38;;;;;;;;;;;;;;;;;;4219059;28;20003;-57
2023/06/27 05:35:58;;;;;;;;;;;;;;;;;;4213518;28;19934;-57
2023/06/27 05:38:19;;;;;;;;;;;;;;;;;;4207298;28;19958;-57
2023/06/27 05:40:39;;;;;;;;;;;;;;;;;;4209285;28;19927;-57
2023/06/27 05:42:59;;;;;;;;;;;;;;;;;;4215565;28;19927;-57
2023/06/27 05:45:19;;;;;;;;;;;;;;;;;;4214400;28;19927;-57
2023/06/27 05:47:40;;;;;;;;;;;;;;;;;;4209544;28;19927;-57
2023/06/27 05:50:01;;;;;;;;;;;;;;;;;;4209317;28;19927;-57
2023/06/27 05:52:22;;;;;;;;;;;;;;;;;;4213749;28;19985;-57
2023/06/27 05:54:43;;;;;;;;;;;;;;;;;;4211031;28;19935;-57
2023/06/27 05:57:03;;;;;;;;;;;;;;;;;;4207201;28;19935;-57
2023/06/27 05:59:23;;;;;;;;;;;;;;;;;;4210216;28;19992;-57
2023/06/27 06:01:44;;;;;;;;;;;;;;;;;;4216965;28;20023;-57
2023/06/27 06:04:04;;;;;;;;;;;;;;;;;;4210434;28;20214;-56
2023/06/27 06:06:25;;;;;;;;;;;;;;;;;;4207667;28;19962;-57
2023/06/27 06:08:45;;;;;;;;;;;;;;;;;;4210728;28;19928;-57
2023/06/27 06:11:05;;;;;;;;;;;;;;;;;;4214129;28;20218;-57
2023/06/27 06:13:26;;;;;;;;;;;;;;;;;;4208722;28;19978;-57
2023/06/27 06:15:46;;;;;;;;;;;;;;;;;;4207971;28;19998;-57
2023/06/27 06:18:06;;;;;;;;;;;;;;;;;;4210234;28;19963;-57
2023/06/27 06:20:29;;;;;;;;;;;;;;;;;;4215300;28;19942;-57
2023/06/27 06:22:49;;;;;;;;;;;;;;;;;;4212928;28;20043;-57
2023/06/27 06:25:10;;;;;;;;;;;;;;;;;;4221896;28;19928;-57
2023/06/27 06:27:30;;;;;;;;;;;;;;;;;;4213129;28;19939;-57
2023/06/27 06:29:50;;;;;;;;;;;;;;;;;;4216460;28;19974;-57
2023/06/27 06:32:11;;;;;;;;;;;;;;;;;;4207331;28;19927;-58
2023/06/27 06:34:31;;;;;;;;;;;;;;;;;;4214341;28;20135;-58
2023/06/27 06:36:51;;;;;;;;;;;;;;;;;;4217398;28;19962;-57
2023/06/27 06:39:11;;;;;;;;;;;;;;;;;;4210630;28;19926;-58
2023/06/27 06:41:31;;;;;;;;;;;;;;;;;;4206531;28;19934;-60
2023/06/27 06:43:51;;;;;;;;;;;;;;;;;;4214291;28;19927;-61
2023/06/27 06:46:11;;;;;;;;;;;;;;;;;;4214314;28;19928;-58
2023/06/27 06:48:32;;;;;;;;;;;;;;;;;;4214799;28;19927;-58
2023/06/27 06:50:52;;;;;;;;;;;;;;;;;;4205126;28;19943;-58
2023/06/27 06:53:12;;;;;;;;;;;;;;;;;;4209764;28;19965;-58
2023/06/27 06:55:32;;;;;;;;;;;;;;;;;;4213133;28;19928;-58
2023/06/27 06:57:52;;;;;;;;;;;;;;;;;;4207717;28;19936;-58
2023/06/27 07:00:13;;;;;;;;;;;;;;;;;;4207389;28;19927;-58
2023/06/27 07:02:33;;;;;;;;;;;;;;;;;;4214095;28;20260;-57
2023/06/27 07:04:54;;;;;;;;;;;;;;;;;;4213139;28;19928;-58
2023/06/27 07:07:14;;;;;;;;;;;;;;;;;;4206657;28;19994;-58
2023/06/27 07:09:34;;;;;;;;;;;;;;;;;;4207453;28;19927;-58
2023/06/27 07:11:54;;;;;;;;;;;;;;;;;;4213219;28;19928;-58
2023/06/27 07:14:17;;;;;;;;;;;;;;;;;;4212835;28;20127;-59
2023/06/27 07:16:37;;;;;;;;;;;;;;;;;;4206018;28;19966;-57
2023/06/27 07:18:57;;;;;;;;;;;;;;;;;;4208298;28;19926;-59
2023/06/27 07:21:17;;;;;;;;;;;;;;;;;;4211005;28;19927;-58
2023/06/27 07:23:38;;;;;;;;;;;;;;;;;;4218695;28;19927;-58
2023/06/27 07:25:58;;;;;;;;;;;;;;;;;;4207156;28;19927;-58
2023/06/27 07:28:20;;;;;;;;;;;;;;;;;;4213339;28;19934;-58
2023/06/27 07:30:45;;;;;;;;;;;;;;;;;;4217127;28;19927;-58
2023/06/27 07:33:05;;;;;;;;;;;;;;;;;;4219483;28;19927;-58
2023/06/27 07:35:28;;;;;;;;;;;;;;;;;;4211777;28;19970;-58
2023/06/27 07:37:48;;;;;;;;;;;;;;;;;;4219678;28;19974;-58
2023/06/27 07:40:08;;;;;;;;;;;;;;;;;;4214604;28;19928;-58
2023/06/27 07:42:29;;;;;;;;;;;;;;;;;;4210384;28;19988;-58
2023/06/27 07:44:49;;;;;;;;;;;;;;;;;;4209410;28;19928;-58
2023/06/27 07:47:09;;;;;;;;;;;;;;;;;;4217566;28;19927;-58
2023/06/27 07:49:30;;;;;;;;;;;;;;;;;;4213269;28;19927;-58
2023/06/27 07:51:51;;;;;;;;;;;;;;;;;;4215062;28;19927;-58
2023/06/27 07:54:11;;;;;;;;;;;;;;;;;;4211956;28;19928;-58
2023/06/27 07:56:31;;;;;;;;;;;;;;;;;;4214055;28;19966;-58
2023/06/27 07:58:52;;;;;;;;;;;;;;;;;;4226008;28;19927;-58
2023/06/27 08:01:12;;;;;;;;;;;;;;;;;;4208745;28;20280;-59
2023/06/27 08:03:32;;;;;;;;;;;;;;;;;;4212133;28;19941;-59
2023/06/27 08:05:52;;;;;;;;;;;;;;;;;;4216012;28;19928;-58
2023/06/27 08:08:12;;;;;;;;;;;;;;;;;;4211574;28;19928;-60
2023/06/27 08:10:32;;;;;;;;;;;;;;;;;;4211001;28;19977;-59
2023/06/27 08:12:52;;;;;;;;;;;;;;;;;;4213488;28;19936;-58
2023/06/27 08:15:12;;;;;;;;;;;;;;;;;;4217973;28;20222;-59
2023/06/27 08:17:33;;;;;;;;;;;;;;;;;;4211829;28;19961;-59
2023/06/27 08:19:53;;;;;;;;;;;;;;;;;;4209614;28;19928;-58
2023/06/27 08:22:13;;;;;;;;;;;;;;;;;;4213516;28;19927;-58
2023/06/27 08:24:33;;;;;;;;;;;;;;;;;;4213268;28;20233;-58
2023/06/27 08:26:55;;;;;;;;;;;;;;;;;;4213387;28;19986;-59
2023/06/27 08:29:16;;;;;;;;;;;;;;;;;;4209910;28;19934;-58
2023/06/27 08:31:36;;;;;;;;;;;;;;;;;;4213315;28;19926;-60
2023/06/27 08:33:56;;;;;;;;;;;;;;;;;;4219906;28;19935;-59
2023/06/27 08:36:16;;;;;;;;;;;;;;;;;;4214404;28;19927;-59
2023/06/27 08:38:36;;;;;;;;;;;;;;;;;;4214212;28;20245;-59
2023/06/27 08:40:57;;;;;;;;;;;;;;;;;;4218244;28;20228;-59
2023/06/27 08:43:17;;;;;;;;;;;;;;;;;;4212746;28;19928;-59
2023/06/27 08:45:37;;;;;;;;;;;;;;;;;;4208260;28;19927;-58
2023/06/27 08:47:57;;;;;;;;;;;;;;;;;;4214379;28;19943;-58
2023/06/27 08:50:18;;;;;;;;;;;;;;;;;;4214878;28;19927;-58
2023/06/27 08:52:38;;;;;;;;;;;;;;;;;;4209694;28;19927;-59
2023/06/27 08:54:58;;;;;;;;;;;;;;;;;;4209820;28;20023;-59
2023/06/27 08:57:19;;;;;;;;;;;;;;;;;;4212866;28;19982;-59
2023/06/27 08:59:39;;;;;;;;;;;;;;;;;;4213384;28;19927;-58
2023/06/27 09:02:00;;;;;;;;;;;;;;;;;;4209878;28;19966;-58
2023/06/27 09:04:20;;;;;;;;;;;;;;;;;;4212440;28;19984;-59
2023/06/27 09:06:40;;;;;;;;;;;;;;;;;;4216783;28;20199;-58
2023/06/27 09:09:01;;;;;;;;;;;;;;;;;;4208111;28;20246;-59
2023/06/27 09:11:21;;;;;;;;;;;;;;;;;;4211636;28;19974;-58
2023/06/27 09:13:41;;;;;;;;;;;;;;;;;;4210123;28;20022;-59
2023/06/27 09:16:02;;;;;;;;;;;;;;;;;;4214201;28;19993;-59
2023/06/27 09:18:22;;;;;;;;;;;;;;;;;;4216190;28;20111;-58
2023/06/27 09:20:42;;;;;;;;;;;;;;;;;;4208501;28;19927;-59
2023/06/27 09:23:05;;;;;;;;;;;;;;;;;;4212997;28;19955;-59
2023/06/27 09:25:25;;;;;;;;;;;;;;;;;;4214105;28;19927;-58
2023/06/27 09:27:45;;;;;;;;;;;;;;;;;;4214653;28;19942;-59
2023/06/27 09:30:08;;;;;;;;;;;;;;;;;;4207038;28;19950;-59
2023/06/27 09:32:28;;;;;;;;;;;;;;;;;;4209719;28;19931;-58
2023/06/27 09:34:48;;;;;;;;;;;;;;;;;;4215078;28;20237;-58
2023/06/27 09:37:09;;;;;;;;;;;;;;;;;;4220219;28;19927;-59
2023/06/27 09:39:32;;;;;;;;;;;;;;;;;;4208655;28;20112;-58
2023/06/27 09:41:52;;;;;;;;;;;;;;;;;;4214589;28;20034;-59
2023/06/27 09:44:12;;;;;;;;;;;;;;;;;;4216181;28;20116;-58
2023/06/27 09:46:32;;;;;;;;;;;;;;;;;;4207128;28;19935;-59
2023/06/27 09:48:52;;;;;;;;;;;;;;;;;;4208584;28;20252;-59
2023/06/27 09:51:13;;;;;;;;;;;;;;;;;;4214546;28;20049;-59
2023/06/27 09:53:33;;;;;;;;;;;;;;;;;;4212613;28;19966;-59
2023/06/27 09:55:53;;;;;;;;;;;;;;;;;;4209665;28;19927;-59
2023/06/27 09:58:14;;;;;;;;;;;;;;;;;;4215369;28;19986;-58
2023/06/27 10:00:34;;;;;;;;;;;;;;;;;;4210548;28;19966;-59
2023/06/27 10:02:55;;;;;;;;;;;;;;;;;;4211983;28;19927;-59
2023/06/27 10:05:15;;;;;;;;;;;;;;;;;;4207348;28;19934;-59
2023/06/27 10:07:35;;;;;;;;;;;;;;;;;;4210444;28;19980;-60
2023/06/27 10:09:55;;;;;;;;;;;;;;;;;;4214351;28;19942;-59
2023/06/27 10:12:16;;;;;;;;;;;;;;;;;;4208988;28;20132;-59
2023/06/27 10:14:36;;;;;;;;;;;;;;;;;;4207607;28;19958;-59
2023/06/27 10:16:56;;;;;;;;;;;;;;;;;;4215244;28;19927;-59
2023/06/27 10:19:17;;;;;;;;;;;;;;;;;;4217458;28;19927;-59
2023/06/27 10:21:37;;;;;;;;;;;;;;;;;;4209780;28;19973;-59
2023/06/27 10:23:57;;;;;;;;;;;;;;;;;;4207902;28;20186;-59
2023/06/27 10:26:19;;;;;;;;;;;;;;;;;;4211958;28;20301;-60
2023/06/27 10:28:40;;;;;;;;;;;;;;;;;;4210425;28;20110;-59
2023/06/27 10:31:02;;;;;;;;;;;;;;;;;;4212116;28;19928;-59
2023/06/27 10:33:27;;;;;;;;;;;;;;;;;;4209344;28;20019;-60
2023/06/27 10:35:48;;;;;;;;;;;;;;;;;;4211512;28;19992;-59
2023/06/27 10:38:09;;;;;;;;;;;;;;;;;;4211256;28;19934;-59
2023/06/27 10:40:31;;;;;;;;;;;;;;;;;;4210046;28;19930;-58
2023/06/27 10:42:51;;;;;;;;;;;;;;;;;;4209840;28;19970;-59
2023/06/27 10:45:11;;;;;;;;;;;;;;;;;;4216344;28;19935;-59
2023/06/27 10:47:34;;;;;;;;;;;;;;;;;;4211312;28;19965;-59
2023/06/27 10:49:54;;;;;;;;;;;;;;;;;;4206788;28;19928;-59
2023/06/27 10:52:15;;;;;;;;;;;;;;;;;;4211421;28;19927;-59
2023/06/27 10:54:35;;;;;;;;;;;;;;;;;;4213994;28;20123;-59
2023/06/27 10:56:56;;;;;;;;;;;;;;;;;;4210567;28;19988;-59
2023/06/27 10:59:17;;;;;;;;;;;;;;;;;;4212306;28;19927;-60
2023/06/27 11:01:37;;;;;;;;;;;;;;;;;;4218497;28;20003;-59
2023/06/27 11:03:57;;;;;;;;;;;;;;;;;;4213429;28;19942;-59
2023/06/27 11:06:18;;;;;;;;;;;;;;;;;;4210647;28;19973;-60
2023/06/27 11:08:38;;;;;;;;;;;;;;;;;;4210543;28;19935;-59
2023/06/27 11:10:58;;;;;;;;;;;;;;;;;;4215219;28;19964;-59
2023/06/27 11:13:19;;;;;;;;;;;;;;;;;;4213970;28;19943;-59
2023/06/27 11:15:39;;;;;;;;;;;;;;;;;;4210104;28;19959;-59
2023/06/27 11:18:00;;;;;;;;;;;;;;;;;;4211960;28;19935;-60
2023/06/27 11:20:20;;;;;;;;;;;;;;;;;;4218151;28;19927;-59
2023/06/27 11:22:40;;;;;;;;;;;;;;;;;;4221247;28;19942;-59
2023/06/27 11:25:01;;;;;;;;;;;;;;;;;;4210082;28;19957;-60
2023/06/27 11:27:21;;;;;;;;;;;;;;;;;;4212761;28;20123;-59
2023/06/27 11:29:41;;;;;;;;;;;;;;;;;;4216862;28;19962;-59
2023/06/27 11:32:01;;;;;;;;;;;;;;;;;;4213650;28;19958;-59
2023/06/27 11:34:21;;;;;;;;;;;;;;;;;;4209294;28;20198;-60
2023/06/27 11:36:42;;;;;;;;;;;;;;;;;;4213770;28;19926;-59
2023/06/27 11:39:03;;;;;;;;;;;;;;;;;;4214465;28;19935;-59
2023/06/27 11:41:23;;;;;;;;;;;;;;;;;;4209108;28;20234;-59
2023/06/27 11:43:43;;;;;;;;;;;;;;;;;;4210286;28;19986;-59
2023/06/27 11:46:04;;;;;;;;;;;;;;;;;;4213730;28;19928;-58
2023/06/27 11:48:24;;;;;;;;;;;;;;;;;;4231514;28;20001;-58
2023/06/27 11:50:44;;;;;;;;;;;;;;;;;;4209910;28;19935;-60
2023/06/27 11:53:05;;;;;;;;;;;;;;;;;;4210535;28;19927;-59
2023/06/27 11:55:26;;;;;;;;;;;;;;;;;;4216286;28;19982;-59
2023/06/27 11:57:46;;;;;;;;;;;;;;;;;;4213099;28;19953;-59
2023/06/27 12:00:07;;;;;;;;;;;;;;;;;;4208214;28;20187;-59
2023/06/27 12:02:27;;;;;;;;;;;;;;;;;;4215387;28;19965;-58
2023/06/27 12:04:47;;;;;;;;;;;;;;;;;;4217861;28;19927;-59
2023/06/27 12:07:08;;;;;;;;;;;;;;;;;;4213967;28;20226;-59
2023/06/27 12:09:28;;;;;;;;;;;;;;;;;;4208048;28;20019;-59
2023/06/27 12:11:49;;;;;;;;;;;;;;;;;;4212455;28;19978;-60
2023/06/27 12:14:09;;;;;;;;;;;;;;;;;;4215127;28;19969;-58
2023/06/27 12:16:32;;;;;;;;;;;;;;;;;;4210747;28;19927;-59
2023/06/27 12:18:53;;;;;;;;;;;;;;;;;;4208083;28;19926;-58
2023/06/27 12:21:13;;;;;;;;;;;;;;;;;;4213837;28;19941;-59
2023/06/27 12:23:34;;;;;;;;;;;;;;;;;;4218844;28;19982;-58
2023/06/27 12:25:54;;;;;;;;;;;;;;;;;;4213884;28;19935;-59
2023/06/27 12:28:14;;;;;;;;;;;;;;;;;;4210161;28;20014;-59
2023/06/27 12:30:35;;;;;;;;;;;;;;;;;;4213692;28;19966;-59
2023/06/27 12:32:55;;;;;;;;;;;;;;;;;;4214927;28;20001;-59
2023/06/27 12:35:17;;;;;;;;;;;;;;;;;;4212093;28;19928;-59
2023/06/27 12:37:38;;;;;;;;;;;;;;;;;;4212625;28;20111;-58
2023/06/27 12:39:58;;;;;;;;;;;;;;;;;;4216144;28;19927;-59
2023/06/27 12:42:18;;;;;;;;;;;;;;;;;;4212960;28;19943;-58
2023/06/27 12:44:38;;;;;;;;;;;;;;;;;;4208881;28;20111;-59
2023/06/27 12:46:58;;;;;;;;;;;;;;;;;;4217711;28;19990;-59
2023/06/27 12:49:19;;;;;;;;;;;;;;;;;;4213754;28;20146;-59
2023/06/27 12:51:39;;;;;;;;;;;;;;;;;;4213657;28;19927;-59
2023/06/27 12:54:00;;;;;;;;;;;;;;;;;;4207308;28;19927;-59
2023/06/27 12:56:20;;;;;;;;;;;;;;;;;;4213161;28;19993;-60
2023/06/27 12:58:42;;;;;;;;;;;;;;;;;;4213329;28;20021;-59
2023/06/27 13:01:02;;;;;;;;;;;;;;;;;;4211047;28;19928;-59
2023/06/27 13:03:23;;;;;;;;;;;;;;;;;;4209098;28;19944;-59
2023/06/27 13:05:43;;;;;;;;;;;;;;;;;;4219389;28;19959;-59
2023/06/27 13:08:03;;;;;;;;;;;;;;;;;;4212902;28;19927;-59
2023/06/27 13:10:25;;;;;;;;;;;;;;;;;;4210755;28;19936;-60
2023/06/27 13:12:45;;;;;;;;;;;;;;;;;;4209512;28;19927;-60
2023/06/27 13:15:08;;;;;;;;;;;;;;;;;;4213561;28;19996;-60
2023/06/27 13:17:28;;;;;;;;;;;;;;;;;;4212659;28;19977;-59
2023/06/27 13:19:49;;;;;;;;;;;;;;;;;;4207170;28;19999;-60
2023/06/27 13:22:10;;;;;;;;;;;;;;;;;;4209742;28;20053;-59
2023/06/27 13:24:30;;;;;;;;;;;;;;;;;;4214942;28;19984;-60
2023/06/27 13:26:51;;;;;;;;;;;;;;;;;;4217400;28;20269;-59
2023/06/27 13:29:11;;;;;;;;;;;;;;;;;;4207379;28;19963;-60
2023/06/27 13:31:31;;;;;;;;;;;;;;;;;;4211332;28;20150;-59
2023/06/27 13:33:51;;;;;;;;;;;;;;;;;;4215087;28;19942;-59
2023/06/27 13:36:12;;;;;;;;;;;;;;;;;;4212224;28;19997;-59
2023/06/27 13:38:32;;;;;;;;;;;;;;;;;;4207105;28;19926;-59
2023/06/27 13:40:52;;;;;;;;;;;;;;;;;;4220525;28;19927;-59
2023/06/27 13:43:12;;;;;;;;;;;;;;;;;;4212851;28;19927;-60
2023/06/27 13:45:33;;;;;;;;;;;;;;;;;;4209223;28;20155;-60
2023/06/27 13:47:54;;;;;;;;;;;;;;;;;;4209843;28;19950;-59
2023/06/27 13:50:14;;;;;;;;;;;;;;;;;;4215700;28;19961;-59
2023/06/27 13:52:35;;;;;;;;;;;;;;;;;;4214704;28;20115;-59
2023/06/27 13:54:56;;;;;;;;;;;;;;;;;;4210241;28;20262;-59
2023/06/27 13:57:16;;;;;;;;;;;;;;;;;;4208960;28;19928;-59
2023/06/27 13:59:38;;;;;;;;;;;;;;;;;;4215011;28;19983;-60
2023/06/27 14:01:58;;;;;;;;;;;;;;;;;;4210785;28;20018;-59
2023/06/27 14:04:19;;;;;;;;;;;;;;;;;;4206463;28;19984;-59
2023/06/27 14:06:39;;;;;;;;;;;;;;;;;;4211072;28;19979;-59
2023/06/27 14:09:00;;;;;;;;;;;;;;;;;;4215752;28;19928;-59
2023/06/27 14:11:20;;;;;;;;;;;;;;;;;;4210682;28;19958;-59
2023/06/27 14:13:41;;;;;;;;;;;;;;;;;;4207960;28;19959;-59
2023/06/27 14:16:01;;;;;;;;;;;;;;;;;;4210969;28;19927;-59
2023/06/27 14:18:21;;;;;;;;;;;;;;;;;;4216381;28;19967;-59
2023/06/27 14:20:41;;;;;;;;;;;;;;;;;;4208426;28;19928;-60
2023/06/27 14:23:04;;;;;;;;;;;;;;;;;;4207585;28;19936;-59
2023/06/27 14:25:25;;;;;;;;;;;;;;;;;;4211013;28;20017;-59
2023/06/27 14:27:45;;;;;;;;;;;;;;;;;;4215679;28;19927;-60
2023/06/27 14:30:05;;;;;;;;;;;;;;;;;;4212536;28;19928;-60
2023/06/27 14:32:25;;;;;;;;;;;;;;;;;;4209478;28;19926;-60
2023/06/27 14:34:46;;;;;;;;;;;;;;;;;;4225926;28;20009;-59
2023/06/27 14:37:06;;;;;;;;;;;;;;;;;;4216750;28;19926;-59
2023/06/27 14:39:27;;;;;;;;;;;;;;;;;;4208464;28;19963;-60
2023/06/27 14:41:48;;;;;;;;;;;;;;;;;;4214411;28;20156;-59
2023/06/27 14:44:08;;;;;;;;;;;;;;;;;;4217651;28;19966;-59
2023/06/27 14:46:29;;;;;;;;;;;;;;;;;;4209644;28;19943;-60
2023/06/27 14:48:51;;;;;;;;;;;;;;;;;;4205425;28;20120;-59
2023/06/27 14:51:11;;;;;;;;;;;;;;;;;;4229684;28;19997;-59
2023/06/27 14:53:34;;;;;;;;;;;;;;;;;;4214496;28;19927;-60
2023/06/27 14:55:55;;;;;;;;;;;;;;;;;;4214526;28;19926;-59
2023/06/27 14:58:15;;;;;;;;;;;;;;;;;;4207028;28;19927;-60
2023/06/27 15:00:36;;;;;;;;;;;;;;;;;;4210715;28;19961;-59
2023/06/27 15:02:56;;;;;;;;;;;;;;;;;;4213167;28;19927;-59
2023/06/27 15:05:16;;;;;;;;;;;;;;;;;;4207780;28;20242;-59
2023/06/27 15:07:37;;;;;;;;;;;;;;;;;;4207667;28;19942;-59
2023/06/27 15:09:57;;;;;;;;;;;;;;;;;;4213772;28;19935;-59
2023/06/27 15:12:17;;;;;;;;;;;;;;;;;;4212598;28;19927;-59
2023/06/27 15:14:37;;;;;;;;;;;;;;;;;;4207842;28;20115;-60
2023/06/27 15:16:57;;;;;;;;;;;;;;;;;;4208598;28;19988;-59
2023/06/27 15:19:18;;;;;;;;;;;;;;;;;;4213760;28;19927;-59
2023/06/27 15:21:38;;;;;;;;;;;;;;;;;;4209407;28;19966;-59
2023/06/27 15:23:58;;;;;;;;;;;;;;;;;;4206710;28;19927;-59
2023/06/27 15:26:18;;;;;;;;;;;;;;;;;;4209341;28;19935;-59
2023/06/27 15:28:38;;;;;;;;;;;;;;;;;;4210641;28;19928;-59
2023/06/27 15:30:58;;;;;;;;;;;;;;;;;;4216263;28;19931;-59
2023/06/27 15:33:19;;;;;;;;;;;;;;;;;;4206265;28;19943;-59
2023/06/27 15:35:39;;;;;;;;;;;;;;;;;;4210409;28;19963;-59
2023/06/27 15:37:59;;;;;;;;;;;;;;;;;;4215013;28;19935;-59
2023/06/27 15:40:20;;;;;;;;;;;;;;;;;;4214552;28;20202;-59
2023/06/27 15:42:40;;;;;;;;;;;;;;;;;;4210063;28;19927;-60
2023/06/27 15:45:01;;;;;;;;;;;;;;;;;;4217813;28;19992;-59
2023/06/27 15:47:21;;;;;;;;;;;;;;;;;;4213796;28;20214;-59
2023/06/27 15:49:41;;;;;;;;;;;;;;;;;;4210905;28;19927;-59
2023/06/27 15:52:01;;;;;;;;;;;;;;;;;;4212064;28;19962;-59
2023/06/27 15:54:21;;;;;;;;;;;;;;;;;;4217441;28;20001;-59
2023/06/27 15:56:41;;;;;;;;;;;;;;;;;;4214793;28;19960;-59
2023/06/27 15:59:01;;;;;;;;;;;;;;;;;;4212024;28;19962;-59